KAUG

Augusta State Airport

Augusta, Maine, USA
KAUG 181120Z 1812/1912 17004KT P6SM -SHRA BKN120 WS020/22030KT FM181400 22010G18KT P6SM SCT060 BKN200 FM182000 23008G16KT 4SM +TSRA BR BKN035CB FM190100 25007KT 4SM -SHRA BR OVC015 FM190500 31007KT 2SM BR OVC008
Issued Valid From Valid To
Jun-18 @ 11:20 UTC
(2 hours ago)
Jun-18 @ 12:00 UTC
(an hour ago)
Jun-19 @ 12:00 UTC
(in 23 hours)
Jun-18 @ 12:00 to Jun-18 @ 14:00
KAUG 181120Z 1812/1912 17004KT P6SM -SHRA BKN120 WS020/22030KT
Wind Visibility Clouds Conditions
170° at 4 knots
 Wind shear 2,000' AGL from 220° at 30 knots
Greater than 6 miles
  • Broken at 12,000' AGL
  • Light Rain
From Jun-18 @ 14:00 to Jun-18 @ 20:00
FM181400 22010G18KT P6SM SCT060 BKN200
Wind Visibility Clouds
220° at 10 knots
 Gusting to 18 knots
Greater than 6 miles
  • Scattered at 6,000' AGL
  • Broken at 20,000' AGL
From Jun-18 @ 20:00 to Jun-19 @ 01:00
FM182000 23008G16KT 4SM +TSRA BR BKN035CB
Wind Visibility Clouds Conditions
230° at 8 knots
 Gusting to 16 knots
4 miles
  • Broken at 3,500' AGL
  • Heavy Thunderstorm
  • Heavy Rain
  • Mist
From Jun-19 @ 01:00 to Jun-19 @ 05:00
FM190100 25007KT 4SM -SHRA BR OVC015
Wind Visibility Clouds Conditions
250° at 7 knots 4 miles
  • Overcast at 1,500' AGL
  • Light Rain
  • Mist
From Jun-19 @ 05:00 to Jun-19 @ 12:00
FM190500 31007KT 2SM BR OVC008
Wind Visibility Clouds Conditions
310° at 7 knots 2 miles
  • Overcast at 800' AGL
  • Mist
KAUG 181120Z 1812/1912 17004KT P6SM -SHRA BKN120 WS020/22030KT FM181400 22010G18KT P6SM SCT060 BKN200 FM182000 23008G16KT 4SM +TSRA BR BKN035CB FM190100 25007KT 4SM -SHRA BR OVC015 FM190500 31007KT 2SM BR OVC008
Issued Jun-18 @ 11:20 UTC
(2 hours ago)
Valid From Jun-18 @ 12:00 UTC
(an hour ago)
Valid To Jun-19 @ 12:00 UTC
(in 23 hours)
Jun-18 @ 12:00 - Jun-18 @ 14:00
Wind Visibility
170° at 4 knots Greater than 6 miles
Clouds
  • Broken at 12,000' AGL
Conditions
  • Light Rain
From Jun-18 @ 14:00 - Jun-18 @ 20:00
Wind Visibility
220° at 10 knots
 Gusting to 18 knots
Greater than 6 miles
Clouds
  • Scattered at 6,000' AGL
  • Broken at 20,000' AGL
From Jun-18 @ 20:00 - Jun-19 @ 01:00
Wind Visibility
230° at 8 knots
 Gusting to 16 knots
4 miles
Clouds
  • Broken at 3,500' AGL
Conditions
  • Heavy Thunderstorm
  • Heavy Rain
  • Mist
From Jun-19 @ 01:00 - Jun-19 @ 05:00
Wind Visibility
250° at 7 knots 4 miles
Clouds
  • Overcast at 1,500' AGL
Conditions
  • Light Rain
  • Mist
From Jun-19 @ 05:00 - Jun-19 @ 12:00
Wind Visibility
310° at 7 knots 2 miles
Clouds
  • Overcast at 800' AGL
Conditions
  • Mist